createdAt,value
2022-09-12T00:08:57.822Z,15.71
2022-09-12T00:19:00.925Z,15.72
2022-09-12T00:29:03.889Z,15.63
2022-09-12T00:39:06.991Z,15.58
2022-09-12T00:49:55.783Z,15.47
2022-09-12T01:00:13.623Z,15.62
2022-09-12T01:10:16.768Z,15.59
2022-09-12T01:20:38.204Z,15.62
2022-09-12T01:30:54.243Z,15.50
2022-09-12T01:41:12.473Z,15.37
2022-09-12T01:51:33.528Z,15.21
2022-09-12T02:01:42.329Z,15.18
2022-09-12T02:11:46.069Z,14.87
2022-09-12T02:21:58.805Z,14.53
2022-09-12T02:32:06.368Z,14.12
2022-09-12T02:42:08.912Z,13.83
2022-09-12T02:52:11.859Z,13.66
2022-09-12T03:02:35.995Z,13.45
2022-09-12T03:12:44.413Z,13.17
2022-09-12T03:22:55.192Z,12.96
2022-09-12T03:32:57.909Z,12.89
2022-09-12T03:43:00.887Z,12.70
2022-09-12T03:53:04.042Z,12.62
2022-09-12T04:03:06.849Z,12.39
2022-09-12T04:13:09.869Z,12.39
2022-09-12T04:23:12.885Z,12.36
2022-09-12T04:33:16.960Z,12.32
2022-09-12T04:43:24.997Z,12.48
2022-09-12T04:53:27.687Z,12.84
2022-09-12T05:03:35.907Z,13.33
2022-09-12T05:13:39.059Z,13.79
2022-09-12T05:23:41.949Z,14.04
2022-09-12T05:33:46.485Z,14.10
2022-09-12T05:43:54.082Z,14.42
2022-09-12T05:53:58.439Z,15.21
2022-09-12T06:04:03.651Z,15.89
2022-09-12T06:14:06.153Z,16.04
2022-09-12T06:24:08.894Z,15.89
2022-09-12T06:34:14.327Z,15.85
2022-09-12T06:44:19.498Z,15.94
2022-09-12T06:54:21.991Z,16.35
2022-09-12T07:04:25.066Z,17.07
2022-09-12T07:14:27.880Z,18.82
2022-09-12T07:24:30.866Z,19.99
2022-09-12T07:34:33.947Z,20.11
2022-09-12T07:44:37.127Z,20.42
2022-09-12T07:54:39.981Z,21.15
2022-09-12T08:04:43.088Z,21.23
2022-09-12T08:14:45.890Z,21.76
2022-09-12T08:24:51.200Z,21.68
2022-09-12T08:34:53.857Z,22.49
2022-09-12T08:45:15.325Z,22.82
2022-09-12T08:55:53.653Z,23.16
2022-09-12T09:06:13.644Z,23.65
2022-09-12T09:16:41.367Z,22.63
2022-09-12T09:26:49.396Z,22.85
2022-09-12T09:37:01.524Z,21.42
2022-09-12T09:47:04.161Z,22.66
2022-09-12T09:57:39.833Z,21.49
2022-09-12T10:07:50.907Z,20.46
2022-09-12T10:17:55.695Z,21.32
2022-09-12T10:28:01.023Z,20.79
2022-09-12T10:38:06.856Z,23.06
2022-09-12T10:48:29.555Z,24.34
2022-09-12T10:58:53.921Z,21.96
2022-09-12T11:09:14.590Z,24.27
2022-09-12T11:19:34.326Z,24.84
2022-09-12T11:29:47.031Z,25.02
2022-09-12T11:39:55.589Z,24.62
2022-09-12T11:50:00.441Z,23.61
2022-09-12T12:00:24.800Z,23.81
2022-09-12T12:10:32.992Z,25.37
2022-09-12T12:20:36.139Z,24.93
2022-09-12T12:30:38.384Z,24.81
2022-09-12T12:40:40.964Z,24.59
2022-09-12T12:50:44.068Z,24.96
2022-09-12T13:00:47.510Z,24.84
2022-09-12T13:10:58.126Z,24.71
2022-09-12T13:21:09.582Z,25.63
2022-09-12T13:31:27.016Z,24.97
2022-09-12T13:42:02.578Z,24.85
2022-09-12T13:52:28.985Z,24.66
2022-09-12T14:02:35.866Z,24.91
2022-09-12T14:12:41.603Z,24.43
2022-09-12T14:22:51.066Z,23.51
2022-09-12T14:33:13.144Z,22.73
2022-09-12T14:43:28.016Z,22.11
2022-09-12T14:53:38.185Z,21.68
2022-09-12T15:03:49.303Z,21.38
2022-09-12T15:13:52.608Z,21.19
2022-09-12T15:23:55.036Z,21.26
2022-09-12T15:33:58.273Z,21.71
2022-09-12T15:44:01.385Z,20.64
2022-09-12T15:54:04.464Z,20.17
2022-09-12T16:04:21.945Z,19.92
2022-09-12T16:14:24.859Z,19.23
2022-09-12T16:24:28.022Z,18.85
2022-09-12T16:34:30.848Z,18.47
2022-09-12T16:44:34.100Z,18.02
2022-09-12T16:54:36.871Z,17.62
2022-09-12T17:04:39.962Z,17.15
2022-09-12T17:14:42.925Z,16.79
2022-09-12T17:24:46.027Z,16.81
2022-09-12T17:34:49.226Z,16.68
2022-09-12T17:44:51.939Z,16.64
2022-09-12T17:54:54.925Z,16.60
2022-09-12T18:04:57.897Z,16.35
2022-09-12T18:15:01.273Z,16.24
2022-09-12T18:25:04.417Z,15.90
2022-09-12T18:35:07.624Z,15.87
2022-09-12T18:45:11.458Z,15.53
2022-09-12T18:55:14.271Z,15.05
2022-09-12T19:05:17.230Z,14.74
2022-09-12T19:15:20.795Z,14.56
2022-09-12T19:25:24.985Z,14.32
2022-09-12T19:35:46.770Z,14.10
2022-09-12T19:45:49.888Z,13.92
2022-09-12T19:55:53.411Z,13.48
2022-09-12T20:06:02.708Z,13.43
2022-09-12T20:16:22.796Z,13.10
2022-09-12T20:26:26.831Z,12.83
2022-09-12T20:36:29.523Z,12.92
2022-09-12T20:46:31.946Z,12.66
2022-09-12T20:56:36.463Z,12.41
2022-09-12T21:06:38.893Z,12.59
2022-09-12T21:16:41.225Z,12.50
2022-09-12T21:26:43.552Z,12.40
2022-09-12T21:36:45.803Z,12.33
2022-09-12T21:46:48.175Z,12.09
2022-09-12T21:56:50.519Z,11.89
2022-09-12T22:06:52.851Z,11.68
2022-09-12T22:16:55.219Z,11.69
2022-09-12T22:26:59.337Z,11.44
2022-09-12T22:37:01.597Z,11.42
2022-09-12T22:47:04.094Z,11.31
2022-09-12T22:57:07.282Z,11.07
2022-09-12T23:07:09.706Z,10.94
2022-09-12T23:17:13.125Z,11.00
2022-09-12T23:27:15.671Z,10.87
2022-09-12T23:37:17.984Z,10.74
2022-09-12T23:47:20.523Z,10.51
2022-09-12T23:57:23.042Z,10.31
